sensor_id;sensor_type;location;lat;lon;timestamp;P1;durP1;ratioP1;P2;durP2;ratioP2
5819;SDS011;2936;47.348;9.640;2023-05-27T00:01:26;18.10;;;14.40;;
5819;SDS011;2936;47.348;9.640;2023-05-27T00:03:53;22.33;;;15.33;;
5819;SDS011;2936;47.348;9.640;2023-05-27T00:06:20;18.53;;;15.23;;
5819;SDS011;2936;47.348;9.640;2023-05-27T00:08:48;24.27;;;14.90;;
5819;SDS011;2936;47.348;9.640;2023-05-27T00:11:15;20.57;;;15.63;;
5819;SDS011;2936;47.348;9.640;2023-05-27T00:13:42;25.83;;;16.50;;
5819;SDS011;2936;47.348;9.640;2023-05-27T00:16:10;18.80;;;14.73;;
5819;SDS011;2936;47.348;9.640;2023-05-27T00:18:38;20.80;;;15.40;;
5819;SDS011;2936;47.348;9.640;2023-05-27T00:21:06;16.90;;;15.17;;
5819;SDS011;2936;47.348;9.640;2023-05-27T00:23:33;30.90;;;15.63;;
5819;SDS011;2936;47.348;9.640;2023-05-27T00:26:01;22.20;;;16.67;;
5819;SDS011;2936;47.348;9.640;2023-05-27T00:28:28;19.30;;;16.60;;
5819;SDS011;2936;47.348;9.640;2023-05-27T00:30:56;23.13;;;16.27;;
5819;SDS011;2936;47.348;9.640;2023-05-27T00:33:23;17.93;;;15.03;;
5819;SDS011;2936;47.348;9.640;2023-05-27T00:35:52;19.50;;;15.90;;
5819;SDS011;2936;47.348;9.640;2023-05-27T00:38:19;21.47;;;16.17;;
5819;SDS011;2936;47.348;9.640;2023-05-27T00:40:47;21.43;;;16.10;;
5819;SDS011;2936;47.348;9.640;2023-05-27T00:43:16;22.03;;;15.53;;
5819;SDS011;2936;47.348;9.640;2023-05-27T00:45:43;23.30;;;17.30;;
5819;SDS011;2936;47.348;9.640;2023-05-27T00:48:11;18.00;;;15.37;;
5819;SDS011;2936;47.348;9.640;2023-05-27T00:50:38;22.63;;;15.20;;
5819;SDS011;2936;47.348;9.640;2023-05-27T00:53:07;19.60;;;15.27;;
5819;SDS011;2936;47.348;9.640;2023-05-27T00:55:34;20.87;;;14.90;;
5819;SDS011;2936;47.348;9.640;2023-05-27T00:58:02;18.83;;;14.10;;
5819;SDS011;2936;47.348;9.640;2023-05-27T01:00:31;19.47;;;14.70;;
5819;SDS011;2936;47.348;9.640;2023-05-27T01:02:59;20.43;;;14.60;;
5819;SDS011;2936;47.348;9.640;2023-05-27T01:05:26;22.93;;;17.80;;
5819;SDS011;2936;47.348;9.640;2023-05-27T01:07:58;21.37;;;16.60;;
5819;SDS011;2936;47.348;9.640;2023-05-27T01:10:30;25.00;;;17.87;;
5819;SDS011;2936;47.348;9.640;2023-05-27T01:12:59;21.50;;;18.57;;
5819;SDS011;2936;47.348;9.640;2023-05-27T01:15:27;22.47;;;18.57;;
5819;SDS011;2936;47.348;9.640;2023-05-27T01:17:56;30.53;;;19.90;;
5819;SDS011;2936;47.348;9.640;2023-05-27T01:20:23;23.40;;;18.90;;
5819;SDS011;2936;47.348;9.640;2023-05-27T01:22:52;24.87;;;18.40;;
5819;SDS011;2936;47.348;9.640;2023-05-27T01:25:22;29.00;;;20.07;;
5819;SDS011;2936;47.348;9.640;2023-05-27T01:27:50;25.00;;;18.63;;
5819;SDS011;2936;47.348;9.640;2023-05-27T01:30:18;25.93;;;18.43;;
5819;SDS011;2936;47.348;9.640;2023-05-27T01:32:46;27.77;;;19.60;;
5819;SDS011;2936;47.348;9.640;2023-05-27T01:35:17;27.23;;;17.83;;
5819;SDS011;2936;47.348;9.640;2023-05-27T01:37:48;24.77;;;18.10;;
5819;SDS011;2936;47.348;9.640;2023-05-27T01:40:19;24.10;;;17.60;;
5819;SDS011;2936;47.348;9.640;2023-05-27T01:42:47;24.50;;;19.23;;
5819;SDS011;2936;47.348;9.640;2023-05-27T01:45:14;29.90;;;18.27;;
5819;SDS011;2936;47.348;9.640;2023-05-27T01:47:42;28.83;;;18.90;;
5819;SDS011;2936;47.348;9.640;2023-05-27T01:50:10;24.90;;;17.73;;
5819;SDS011;2936;47.348;9.640;2023-05-27T01:52:37;23.40;;;18.03;;
5819;SDS011;2936;47.348;9.640;2023-05-27T01:55:05;31.10;;;18.10;;
5819;SDS011;2936;47.348;9.640;2023-05-27T01:57:34;28.37;;;17.43;;
5819;SDS011;2936;47.348;9.640;2023-05-27T02:00:02;22.87;;;18.50;;
5819;SDS011;2936;47.348;9.640;2023-05-27T02:02:32;20.40;;;17.60;;
5819;SDS011;2936;47.348;9.640;2023-05-27T02:04:59;27.13;;;17.60;;
5819;SDS011;2936;47.348;9.640;2023-05-27T02:07:27;24.07;;;18.70;;
5819;SDS011;2936;47.348;9.640;2023-05-27T02:09:54;22.27;;;17.50;;
5819;SDS011;2936;47.348;9.640;2023-05-27T02:12:21;23.50;;;17.60;;
5819;SDS011;2936;47.348;9.640;2023-05-27T02:14:50;24.23;;;17.67;;
5819;SDS011;2936;47.348;9.640;2023-05-27T02:17:17;25.17;;;18.57;;
5819;SDS011;2936;47.348;9.640;2023-05-27T02:19:45;21.17;;;16.90;;
5819;SDS011;2936;47.348;9.640;2023-05-27T02:22:12;25.43;;;18.00;;
5819;SDS011;2936;47.348;9.640;2023-05-27T02:24:40;21.10;;;15.97;;
5819;SDS011;2936;47.348;9.640;2023-05-27T02:27:07;23.00;;;17.30;;
5819;SDS011;2936;47.348;9.640;2023-05-27T02:29:34;19.60;;;14.57;;
5819;SDS011;2936;47.348;9.640;2023-05-27T02:32:03;16.92;;;14.25;;
5819;SDS011;2936;47.348;9.640;2023-05-27T02:34:31;16.17;;;13.27;;
5819;SDS011;2936;47.348;9.640;2023-05-27T02:37:02;16.92;;;14.68;;
5819;SDS011;2936;47.348;9.640;2023-05-27T02:39:29;19.98;;;14.38;;
5819;SDS011;2936;47.348;9.640;2023-05-27T02:41:56;19.07;;;14.27;;
5819;SDS011;2936;47.348;9.640;2023-05-27T02:44:24;18.30;;;13.95;;
5819;SDS011;2936;47.348;9.640;2023-05-27T02:46:51;18.00;;;14.75;;
5819;SDS011;2936;47.348;9.640;2023-05-27T02:49:20;17.88;;;14.68;;
5819;SDS011;2936;47.348;9.640;2023-05-27T02:51:47;16.90;;;14.17;;
5819;SDS011;2936;47.348;9.640;2023-05-27T02:54:15;17.30;;;14.17;;
5819;SDS011;2936;47.348;9.640;2023-05-27T02:56:42;17.80;;;13.60;;
5819;SDS011;2936;47.348;9.640;2023-05-27T02:59:09;19.92;;;14.98;;
5819;SDS011;2936;47.348;9.640;2023-05-27T03:01:37;18.70;;;14.20;;
5819;SDS011;2936;47.348;9.640;2023-05-27T03:04:04;15.98;;;13.88;;
5819;SDS011;2936;47.348;9.640;2023-05-27T03:06:33;16.23;;;13.95;;
5819;SDS011;2936;47.348;9.640;2023-05-27T03:09:01;18.13;;;14.30;;
5819;SDS011;2936;47.348;9.640;2023-05-27T03:11:29;17.20;;;13.50;;
5819;SDS011;2936;47.348;9.640;2023-05-27T03:13:56;20.23;;;13.38;;
5819;SDS011;2936;47.348;9.640;2023-05-27T03:16:23;21.48;;;14.48;;
5819;SDS011;2936;47.348;9.640;2023-05-27T03:18:51;17.30;;;14.52;;
5819;SDS011;2936;47.348;9.640;2023-05-27T03:21:18;20.38;;;14.90;;
5819;SDS011;2936;47.348;9.640;2023-05-27T03:23:47;20.70;;;14.20;;
5819;SDS011;2936;47.348;9.640;2023-05-27T03:26:14;22.55;;;15.90;;
5819;SDS011;2936;47.348;9.640;2023-05-27T03:28:41;21.42;;;15.63;;
5819;SDS011;2936;47.348;9.640;2023-05-27T03:31:09;19.83;;;14.97;;
5819;SDS011;2936;47.348;9.640;2023-05-27T03:33:37;23.23;;;16.45;;
5819;SDS011;2936;47.348;9.640;2023-05-27T03:36:05;31.05;;;19.50;;
5819;SDS011;2936;47.348;9.640;2023-05-27T03:38:33;26.23;;;19.67;;
5819;SDS011;2936;47.348;9.640;2023-05-27T03:41:02;24.67;;;18.98;;
5819;SDS011;2936;47.348;9.640;2023-05-27T03:43:29;23.45;;;18.77;;
5819;SDS011;2936;47.348;9.640;2023-05-27T03:45:56;25.80;;;18.02;;
5819;SDS011;2936;47.348;9.640;2023-05-27T03:48:24;24.73;;;17.85;;
5819;SDS011;2936;47.348;9.640;2023-05-27T03:50:51;24.13;;;17.67;;
5819;SDS011;2936;47.348;9.640;2023-05-27T03:53:18;24.70;;;17.38;;
5819;SDS011;2936;47.348;9.640;2023-05-27T03:55:46;31.52;;;17.98;;
5819;SDS011;2936;47.348;9.640;2023-05-27T03:58:15;25.38;;;18.55;;
5819;SDS011;2936;47.348;9.640;2023-05-27T04:00:42;22.88;;;17.60;;
5819;SDS011;2936;47.348;9.640;2023-05-27T04:03:09;22.35;;;16.50;;
5819;SDS011;2936;47.348;9.640;2023-05-27T04:05:37;24.08;;;16.25;;
5819;SDS011;2936;47.348;9.640;2023-05-27T04:08:04;21.70;;;16.52;;
5819;SDS011;2936;47.348;9.640;2023-05-27T04:10:31;21.23;;;16.70;;
5819;SDS011;2936;47.348;9.640;2023-05-27T04:12:59;23.00;;;17.10;;
5819;SDS011;2936;47.348;9.640;2023-05-27T04:15:27;32.42;;;17.90;;
5819;SDS011;2936;47.348;9.640;2023-05-27T04:17:55;25.33;;;18.23;;
5819;SDS011;2936;47.348;9.640;2023-05-27T04:20:22;23.30;;;17.60;;
5819;SDS011;2936;47.348;9.640;2023-05-27T04:22:50;24.73;;;18.50;;
5819;SDS011;2936;47.348;9.640;2023-05-27T04:25:17;27.83;;;17.52;;
5819;SDS011;2936;47.348;9.640;2023-05-27T04:27:44;21.95;;;17.08;;
5819;SDS011;2936;47.348;9.640;2023-05-27T04:30:13;24.67;;;17.17;;
5819;SDS011;2936;47.348;9.640;2023-05-27T04:32:41;24.15;;;17.77;;
5819;SDS011;2936;47.348;9.640;2023-05-27T04:35:09;20.45;;;16.73;;
5819;SDS011;2936;47.348;9.640;2023-05-27T04:37:37;21.73;;;16.77;;
5819;SDS011;2936;47.348;9.640;2023-05-27T04:40:06;20.47;;;16.80;;
5819;SDS011;2936;47.348;9.640;2023-05-27T04:42:34;22.95;;;17.95;;
5819;SDS011;2936;47.348;9.640;2023-05-27T04:45:02;21.08;;;16.17;;
5819;SDS011;2936;47.348;9.640;2023-05-27T04:47:31;27.27;;;17.65;;
5819;SDS011;2936;47.348;9.640;2023-05-27T04:49:59;33.03;;;17.60;;
5819;SDS011;2936;47.348;9.640;2023-05-27T04:52:27;24.03;;;17.70;;
5819;SDS011;2936;47.348;9.640;2023-05-27T04:54:54;21.63;;;16.65;;
5819;SDS011;2936;47.348;9.640;2023-05-27T04:57:22;22.63;;;17.92;;
5819;SDS011;2936;47.348;9.640;2023-05-27T04:59:49;28.60;;;17.73;;
5819;SDS011;2936;47.348;9.640;2023-05-27T05:02:43;33.23;;;17.10;;
5819;SDS011;2936;47.348;9.640;2023-05-27T05:05:14;24.20;;;16.70;;
5819;SDS011;2936;47.348;9.640;2023-05-27T05:07:42;22.67;;;16.75;;
5819;SDS011;2936;47.348;9.640;2023-05-27T05:10:10;25.33;;;15.97;;
5819;SDS011;2936;47.348;9.640;2023-05-27T05:12:38;27.07;;;16.33;;
5819;SDS011;2936;47.348;9.640;2023-05-27T05:15:07;20.97;;;15.50;;
5819;SDS011;2936;47.348;9.640;2023-05-27T05:17:34;24.00;;;14.77;;
5819;SDS011;2936;47.348;9.640;2023-05-27T05:20:02;16.27;;;14.00;;
5819;SDS011;2936;47.348;9.640;2023-05-27T05:22:32;24.50;;;14.80;;
5819;SDS011;2936;47.348;9.640;2023-05-27T05:24:59;20.60;;;14.07;;
5819;SDS011;2936;47.348;9.640;2023-05-27T05:27:27;18.80;;;12.60;;
5819;SDS011;2936;47.348;9.640;2023-05-27T05:29:54;18.00;;;12.03;;
5819;SDS011;2936;47.348;9.640;2023-05-27T05:32:21;30.77;;;12.80;;
5819;SDS011;2936;47.348;9.640;2023-05-27T05:34:49;18.43;;;12.83;;
5819;SDS011;2936;47.348;9.640;2023-05-27T05:37:16;20.27;;;13.87;;
5819;SDS011;2936;47.348;9.640;2023-05-27T05:39:45;25.10;;;13.47;;
5819;SDS011;2936;47.348;9.640;2023-05-27T05:42:12;14.53;;;12.20;;
5819;SDS011;2936;47.348;9.640;2023-05-27T05:44:41;17.40;;;13.27;;
5819;SDS011;2936;47.348;9.640;2023-05-27T05:47:08;17.60;;;12.27;;
5819;SDS011;2936;47.348;9.640;2023-05-27T05:49:35;17.60;;;11.97;;
5819;SDS011;2936;47.348;9.640;2023-05-27T05:52:03;17.97;;;12.47;;
5819;SDS011;2936;47.348;9.640;2023-05-27T05:54:30;15.33;;;12.00;;
5819;SDS011;2936;47.348;9.640;2023-05-27T05:56:59;17.53;;;12.67;;
5819;SDS011;2936;47.348;9.640;2023-05-27T05:59:27;18.90;;;12.23;;
5819;SDS011;2936;47.348;9.640;2023-05-27T06:01:54;16.87;;;12.00;;
5819;SDS011;2936;47.348;9.640;2023-05-27T06:04:22;20.87;;;12.47;;
5819;SDS011;2936;47.348;9.640;2023-05-27T06:06:49;26.23;;;13.90;;
5819;SDS011;2936;47.348;9.640;2023-05-27T06:09:17;18.23;;;13.40;;
5819;SDS011;2936;47.348;9.640;2023-05-27T06:11:44;17.10;;;12.70;;
5819;SDS011;2936;47.348;9.640;2023-05-27T06:14:13;14.73;;;12.57;;
5819;SDS011;2936;47.348;9.640;2023-05-27T06:16:40;19.93;;;12.97;;
5819;SDS011;2936;47.348;9.640;2023-05-27T06:19:07;18.90;;;12.40;;
5819;SDS011;2936;47.348;9.640;2023-05-27T06:21:35;23.73;;;12.77;;
5819;SDS011;2936;47.348;9.640;2023-05-27T06:24:02;15.53;;;13.17;;
5819;SDS011;2936;47.348;9.640;2023-05-27T06:26:29;21.80;;;13.77;;
5819;SDS011;2936;47.348;9.640;2023-05-27T06:28:57;18.87;;;12.33;;
5819;SDS011;2936;47.348;9.640;2023-05-27T06:31:25;19.57;;;13.17;;
5819;SDS011;2936;47.348;9.640;2023-05-27T06:33:53;15.90;;;12.50;;
5819;SDS011;2936;47.348;9.640;2023-05-27T06:36:20;17.63;;;13.10;;
5819;SDS011;2936;47.348;9.640;2023-05-27T06:38:48;17.23;;;13.17;;
5819;SDS011;2936;47.348;9.640;2023-05-27T06:41:18;19.90;;;13.80;;
5819;SDS011;2936;47.348;9.640;2023-05-27T06:43:46;19.90;;;13.00;;
5819;SDS011;2936;47.348;9.640;2023-05-27T06:46:13;23.60;;;14.37;;
5819;SDS011;2936;47.348;9.640;2023-05-27T06:48:42;22.43;;;14.73;;
5819;SDS011;2936;47.348;9.640;2023-05-27T06:51:09;24.47;;;13.60;;
5819;SDS011;2936;47.348;9.640;2023-05-27T06:53:36;18.17;;;13.50;;
5819;SDS011;2936;47.348;9.640;2023-05-27T06:56:04;16.90;;;13.67;;
5819;SDS011;2936;47.348;9.640;2023-05-27T06:58:31;16.00;;;13.00;;
5819;SDS011;2936;47.348;9.640;2023-05-27T07:00:59;21.77;;;13.87;;
5819;SDS011;2936;47.348;9.640;2023-05-27T07:03:26;22.23;;;14.20;;
5819;SDS011;2936;47.348;9.640;2023-05-27T07:05:55;15.87;;;12.80;;
5819;SDS011;2936;47.348;9.640;2023-05-27T07:08:22;20.60;;;14.40;;
5819;SDS011;2936;47.348;9.640;2023-05-27T07:10:49;19.00;;;12.67;;
5819;SDS011;2936;47.348;9.640;2023-05-27T07:13:17;19.73;;;15.60;;
5819;SDS011;2936;47.348;9.640;2023-05-27T07:15:44;19.50;;;13.87;;
5819;SDS011;2936;47.348;9.640;2023-05-27T07:18:11;16.97;;;13.10;;
5819;SDS011;2936;47.348;9.640;2023-05-27T07:20:39;19.10;;;13.53;;
5819;SDS011;2936;47.348;9.640;2023-05-27T07:23:07;22.60;;;14.70;;
5819;SDS011;2936;47.348;9.640;2023-05-27T07:25:34;23.73;;;13.67;;
5819;SDS011;2936;47.348;9.640;2023-05-27T07:28:02;20.83;;;13.90;;
5819;SDS011;2936;47.348;9.640;2023-05-27T07:30:29;20.67;;;13.87;;
5819;SDS011;2936;47.348;9.640;2023-05-27T07:32:57;21.10;;;14.03;;
5819;SDS011;2936;47.348;9.640;2023-05-27T07:35:24;17.60;;;12.73;;
5819;SDS011;2936;47.348;9.640;2023-05-27T07:37:51;20.10;;;13.10;;
5819;SDS011;2936;47.348;9.640;2023-05-27T07:40:20;17.10;;;13.93;;
5819;SDS011;2936;47.348;9.640;2023-05-27T07:42:47;17.90;;;12.33;;
5819;SDS011;2936;47.348;9.640;2023-05-27T07:45:15;21.53;;;13.67;;
5819;SDS011;2936;47.348;9.640;2023-05-27T07:47:42;18.77;;;12.83;;
5819;SDS011;2936;47.348;9.640;2023-05-27T07:50:11;16.70;;;13.67;;
5819;SDS011;2936;47.348;9.640;2023-05-27T07:52:39;26.50;;;14.93;;
5819;SDS011;2936;47.348;9.640;2023-05-27T07:55:07;17.73;;;13.43;;
5819;SDS011;2936;47.348;9.640;2023-05-27T07:57:36;19.43;;;12.97;;
5819;SDS011;2936;47.348;9.640;2023-05-27T08:00:04;20.43;;;13.30;;
5819;SDS011;2936;47.348;9.640;2023-05-27T08:02:32;17.00;;;13.27;;
5819;SDS011;2936;47.348;9.640;2023-05-27T08:04:59;15.80;;;13.40;;
5819;SDS011;2936;47.348;9.640;2023-05-27T08:07:26;14.67;;;12.40;;
5819;SDS011;2936;47.348;9.640;2023-05-27T08:09:54;19.13;;;13.87;;
5819;SDS011;2936;47.348;9.640;2023-05-27T08:12:21;22.00;;;13.60;;
5819;SDS011;2936;47.348;9.640;2023-05-27T08:14:50;14.23;;;12.73;;
5819;SDS011;2936;47.348;9.640;2023-05-27T08:17:17;17.40;;;13.83;;
5819;SDS011;2936;47.348;9.640;2023-05-27T08:19:45;22.90;;;15.03;;
5819;SDS011;2936;47.348;9.640;2023-05-27T08:22:12;18.00;;;13.53;;
5819;SDS011;2936;47.348;9.640;2023-05-27T08:24:40;21.00;;;14.40;;
5819;SDS011;2936;47.348;9.640;2023-05-27T08:27:16;18.80;;;13.70;;
5819;SDS011;2936;47.348;9.640;2023-05-27T08:29:44;15.93;;;13.43;;
5819;SDS011;2936;47.348;9.640;2023-05-27T08:32:13;25.03;;;14.50;;
5819;SDS011;2936;47.348;9.640;2023-05-27T08:34:40;23.17;;;15.00;;
5819;SDS011;2936;47.348;9.640;2023-05-27T08:37:07;21.20;;;13.50;;
5819;SDS011;2936;47.348;9.640;2023-05-27T08:39:35;17.87;;;13.07;;
5819;SDS011;2936;47.348;9.640;2023-05-27T08:42:02;18.53;;;13.30;;
5819;SDS011;2936;47.348;9.640;2023-05-27T08:44:30;16.97;;;13.30;;
5819;SDS011;2936;47.348;9.640;2023-05-27T08:46:57;21.83;;;13.50;;
5819;SDS011;2936;47.348;9.640;2023-05-27T08:49:26;19.03;;;14.17;;
5819;SDS011;2936;47.348;9.640;2023-05-27T08:51:53;19.00;;;13.77;;
5819;SDS011;2936;47.348;9.640;2023-05-27T08:54:21;17.70;;;13.53;;
5819;SDS011;2936;47.348;9.640;2023-05-27T08:56:49;17.93;;;12.80;;
5819;SDS011;2936;47.348;9.640;2023-05-27T08:59:19;24.63;;;13.20;;
5819;SDS011;2936;47.348;9.640;2023-05-27T09:01:47;18.90;;;14.00;;
5819;SDS011;2936;47.348;9.640;2023-05-27T09:04:14;18.43;;;13.00;;
5819;SDS011;2936;47.348;9.640;2023-05-27T09:06:43;19.60;;;14.17;;
5819;SDS011;2936;47.348;9.640;2023-05-27T09:09:10;18.73;;;12.90;;
5819;SDS011;2936;47.348;9.640;2023-05-27T09:11:38;21.40;;;14.30;;
5819;SDS011;2936;47.348;9.640;2023-05-27T09:14:07;23.57;;;15.43;;
5819;SDS011;2936;47.348;9.640;2023-05-27T09:16:41;18.20;;;13.37;;
5819;SDS011;2936;47.348;9.640;2023-05-27T09:19:14;18.17;;;13.07;;
5819;SDS011;2936;47.348;9.640;2023-05-27T09:21:42;23.33;;;12.93;;
5819;SDS011;2936;47.348;9.640;2023-05-27T09:24:10;24.33;;;14.60;;
5819;SDS011;2936;47.348;9.640;2023-05-27T09:26:44;19.80;;;13.90;;
5819;SDS011;2936;47.348;9.640;2023-05-27T09:29:11;18.47;;;14.10;;
5819;SDS011;2936;47.348;9.640;2023-05-27T09:31:39;24.40;;;14.67;;
5819;SDS011;2936;47.348;9.640;2023-05-27T09:34:10;19.43;;;13.80;;
5819;SDS011;2936;47.348;9.640;2023-05-27T09:36:43;22.77;;;14.50;;
5819;SDS011;2936;47.348;9.640;2023-05-27T09:39:10;21.40;;;16.17;;
5819;SDS011;2936;47.348;9.640;2023-05-27T09:41:38;20.17;;;14.43;;
5819;SDS011;2936;47.348;9.640;2023-05-27T09:44:05;19.40;;;14.40;;
5819;SDS011;2936;47.348;9.640;2023-05-27T09:46:33;29.30;;;15.03;;
5819;SDS011;2936;47.348;9.640;2023-05-27T09:49:00;25.70;;;14.10;;
5819;SDS011;2936;47.348;9.640;2023-05-27T09:51:28;22.50;;;15.20;;
5819;SDS011;2936;47.348;9.640;2023-05-27T09:53:58;20.27;;;15.00;;
5819;SDS011;2936;47.348;9.640;2023-05-27T09:56:26;26.70;;;16.47;;
5819;SDS011;2936;47.348;9.640;2023-05-27T09:58:54;19.40;;;13.57;;
5819;SDS011;2936;47.348;9.640;2023-05-27T10:01:21;24.37;;;15.30;;
5819;SDS011;2936;47.348;9.640;2023-05-27T10:03:49;25.63;;;16.03;;
5819;SDS011;2936;47.348;9.640;2023-05-27T10:06:17;21.93;;;15.40;;
5819;SDS011;2936;47.348;9.640;2023-05-27T10:08:44;23.00;;;15.13;;
5819;SDS011;2936;47.348;9.640;2023-05-27T10:11:13;20.40;;;15.33;;
5819;SDS011;2936;47.348;9.640;2023-05-27T10:13:41;20.70;;;14.90;;
5819;SDS011;2936;47.348;9.640;2023-05-27T10:16:17;29.83;;;15.80;;
5819;SDS011;2936;47.348;9.640;2023-05-27T10:18:45;24.80;;;16.60;;
5819;SDS011;2936;47.348;9.640;2023-05-27T10:21:17;23.17;;;16.90;;
5819;SDS011;2936;47.348;9.640;2023-05-27T10:23:52;24.27;;;14.80;;
5819;SDS011;2936;47.348;9.640;2023-05-27T10:26:30;24.50;;;15.83;;
5819;SDS011;2936;47.348;9.640;2023-05-27T10:29:04;23.23;;;17.07;;
5819;SDS011;2936;47.348;9.640;2023-05-27T10:31:32;21.80;;;14.40;;
5819;SDS011;2936;47.348;9.640;2023-05-27T10:34:03;32.30;;;16.77;;
5819;SDS011;2936;47.348;9.640;2023-05-27T10:36:31;20.90;;;16.30;;
5819;SDS011;2936;47.348;9.640;2023-05-27T10:39:00;22.73;;;15.10;;
5819;SDS011;2936;47.348;9.640;2023-05-27T10:41:35;25.93;;;14.70;;
5819;SDS011;2936;47.348;9.640;2023-05-27T10:44:05;33.00;;;14.80;;
5819;SDS011;2936;47.348;9.640;2023-05-27T10:46:37;22.60;;;14.23;;
5819;SDS011;2936;47.348;9.640;2023-05-27T10:49:09;20.40;;;15.67;;
5819;SDS011;2936;47.348;9.640;2023-05-27T10:51:36;21.43;;;16.00;;
5819;SDS011;2936;47.348;9.640;2023-05-27T10:54:03;23.67;;;15.10;;
5819;SDS011;2936;47.348;9.640;2023-05-27T10:56:33;23.83;;;14.83;;
5819;SDS011;2936;47.348;9.640;2023-05-27T10:59:00;19.20;;;14.63;;
5819;SDS011;2936;47.348;9.640;2023-05-27T11:01:28;23.77;;;14.47;;
5819;SDS011;2936;47.348;9.640;2023-05-27T11:03:57;20.73;;;13.23;;
5819;SDS011;2936;47.348;9.640;2023-05-27T11:06:24;17.80;;;12.60;;
5819;SDS011;2936;47.348;9.640;2023-05-27T11:08:52;20.43;;;14.67;;
5819;SDS011;2936;47.348;9.640;2023-05-27T11:11:19;25.33;;;14.63;;
5819;SDS011;2936;47.348;9.640;2023-05-27T11:13:49;21.50;;;15.70;;
5819;SDS011;2936;47.348;9.640;2023-05-27T11:16:16;16.00;;;12.80;;
5819;SDS011;2936;47.348;9.640;2023-05-27T11:18:44;18.20;;;13.97;;
5819;SDS011;2936;47.348;9.640;2023-05-27T11:21:12;23.20;;;13.93;;
5819;SDS011;2936;47.348;9.640;2023-05-27T11:23:41;18.27;;;13.40;;
5819;SDS011;2936;47.348;9.640;2023-05-27T11:26:13;21.13;;;11.80;;
5819;SDS011;2936;47.348;9.640;2023-05-27T11:28:47;23.23;;;12.60;;
5819;SDS011;2936;47.348;9.640;2023-05-27T11:31:16;16.20;;;12.67;;
5819;SDS011;2936;47.348;9.640;2023-05-27T11:36:12;17.93;;;12.23;;
5819;SDS011;2936;47.348;9.640;2023-05-27T11:38:50;18.13;;;12.57;;
5819;SDS011;2936;47.348;9.640;2023-05-27T11:41:17;19.17;;;12.10;;
5819;SDS011;2936;47.348;9.640;2023-05-27T11:43:51;15.10;;;10.87;;
5819;SDS011;2936;47.348;9.640;2023-05-27T11:46:21;21.10;;;11.40;;
5819;SDS011;2936;47.348;9.640;2023-05-27T11:48:48;26.97;;;11.87;;
5819;SDS011;2936;47.348;9.640;2023-05-27T11:51:16;17.00;;;12.33;;
5819;SDS011;2936;47.348;9.640;2023-05-27T11:53:46;21.17;;;12.17;;
5819;SDS011;2936;47.348;9.640;2023-05-27T11:56:13;16.20;;;11.13;;
5819;SDS011;2936;47.348;9.640;2023-05-27T11:58:41;11.33;;;10.13;;
5819;SDS011;2936;47.348;9.640;2023-05-27T12:01:08;15.70;;;10.67;;
5819;SDS011;2936;47.348;9.640;2023-05-27T12:03:37;13.17;;;9.50;;
5819;SDS011;2936;47.348;9.640;2023-05-27T12:06:06;15.43;;;10.40;;
5819;SDS011;2936;47.348;9.640;2023-05-27T12:08:33;19.50;;;10.63;;
5819;SDS011;2936;47.348;9.640;2023-05-27T12:11:01;12.03;;;8.37;;
5819;SDS011;2936;47.348;9.640;2023-05-27T12:13:28;13.40;;;9.40;;
5819;SDS011;2936;47.348;9.640;2023-05-27T12:15:57;12.57;;;9.10;;
5819;SDS011;2936;47.348;9.640;2023-05-27T12:18:24;13.33;;;9.23;;
5819;SDS011;2936;47.348;9.640;2023-05-27T12:20:53;13.67;;;9.07;;
5819;SDS011;2936;47.348;9.640;2023-05-27T12:23:22;11.83;;;9.03;;
5819;SDS011;2936;47.348;9.640;2023-05-27T12:25:50;11.30;;;9.27;;
5819;SDS011;2936;47.348;9.640;2023-05-27T12:28:17;12.53;;;8.90;;
5819;SDS011;2936;47.348;9.640;2023-05-27T12:30:44;13.60;;;7.80;;
5819;SDS011;2936;47.348;9.640;2023-05-27T12:33:12;11.53;;;8.00;;
5819;SDS011;2936;47.348;9.640;2023-05-27T12:35:39;15.17;;;8.40;;
5819;SDS011;2936;47.348;9.640;2023-05-27T12:38:08;9.87;;;7.70;;
5819;SDS011;2936;47.348;9.640;2023-05-27T12:40:36;11.00;;;8.70;;
5819;SDS011;2936;47.348;9.640;2023-05-27T12:43:03;11.13;;;8.50;;
5819;SDS011;2936;47.348;9.640;2023-05-27T12:45:31;9.27;;;8.27;;
5819;SDS011;2936;47.348;9.640;2023-05-27T12:47:58;8.77;;;8.00;;
5819;SDS011;2936;47.348;9.640;2023-05-27T12:50:26;11.37;;;8.70;;
5819;SDS011;2936;47.348;9.640;2023-05-27T12:52:54;14.53;;;8.93;;
5819;SDS011;2936;47.348;9.640;2023-05-27T12:55:22;8.83;;;7.77;;
5819;SDS011;2936;47.348;9.640;2023-05-27T12:57:50;10.80;;;7.53;;
5819;SDS011;2936;47.348;9.640;2023-05-27T13:00:18;11.23;;;8.50;;
5819;SDS011;2936;47.348;9.640;2023-05-27T13:02:47;8.73;;;7.13;;
5819;SDS011;2936;47.348;9.640;2023-05-27T13:05:14;9.70;;;8.27;;
5819;SDS011;2936;47.348;9.640;2023-05-27T13:07:52;9.17;;;7.73;;
5819;SDS011;2936;47.348;9.640;2023-05-27T13:10:19;9.43;;;7.60;;
5819;SDS011;2936;47.348;9.640;2023-05-27T13:12:48;9.83;;;7.97;;
5819;SDS011;2936;47.348;9.640;2023-05-27T13:15:15;12.13;;;7.43;;
5819;SDS011;2936;47.348;9.640;2023-05-27T13:17:43;9.57;;;7.40;;
5819;SDS011;2936;47.348;9.640;2023-05-27T13:20:10;10.30;;;7.60;;
5819;SDS011;2936;47.348;9.640;2023-05-27T13:22:38;8.93;;;8.00;;
5819;SDS011;2936;47.348;9.640;2023-05-27T13:25:06;11.57;;;8.27;;
5819;SDS011;2936;47.348;9.640;2023-05-27T13:27:34;8.53;;;7.33;;
5819;SDS011;2936;47.348;9.640;2023-05-27T13:30:03;10.60;;;7.80;;
5819;SDS011;2936;47.348;9.640;2023-05-27T13:32:30;17.97;;;7.53;;
5819;SDS011;2936;47.348;9.640;2023-05-27T13:34:57;8.57;;;7.30;;
5819;SDS011;2936;47.348;9.640;2023-05-27T13:37:25;9.60;;;7.50;;
5819;SDS011;2936;47.348;9.640;2023-05-27T13:39:53;9.33;;;7.00;;
5819;SDS011;2936;47.348;9.640;2023-05-27T13:42:22;8.30;;;7.17;;
5819;SDS011;2936;47.348;9.640;2023-05-27T13:44:49;9.40;;;7.40;;
5819;SDS011;2936;47.348;9.640;2023-05-27T13:47:18;11.17;;;7.40;;
5819;SDS011;2936;47.348;9.640;2023-05-27T13:49:45;8.50;;;7.80;;
5819;SDS011;2936;47.348;9.640;2023-05-27T13:52:16;19.50;;;8.63;;
5819;SDS011;2936;47.348;9.640;2023-05-27T13:54:43;12.73;;;8.10;;
5819;SDS011;2936;47.348;9.640;2023-05-27T13:57:11;9.47;;;7.90;;
5819;SDS011;2936;47.348;9.640;2023-05-27T13:59:38;9.20;;;7.10;;
5819;SDS011;2936;47.348;9.640;2023-05-27T14:02:06;8.57;;;7.67;;
5819;SDS011;2936;47.348;9.640;2023-05-27T14:04:35;8.90;;;6.83;;
5819;SDS011;2936;47.348;9.640;2023-05-27T14:07:03;14.67;;;7.37;;
5819;SDS011;2936;47.348;9.640;2023-05-27T14:09:30;11.87;;;7.20;;
5819;SDS011;2936;47.348;9.640;2023-05-27T14:11:58;7.90;;;7.20;;
5819;SDS011;2936;47.348;9.640;2023-05-27T14:14:25;8.30;;;6.73;;
5819;SDS011;2936;47.348;9.640;2023-05-27T14:16:52;10.57;;;7.17;;
5819;SDS011;2936;47.348;9.640;2023-05-27T14:19:20;9.33;;;6.63;;
5819;SDS011;2936;47.348;9.640;2023-05-27T14:21:48;10.50;;;7.50;;
5819;SDS011;2936;47.348;9.640;2023-05-27T14:24:16;9.27;;;6.70;;
5819;SDS011;2936;47.348;9.640;2023-05-27T14:26:43;10.83;;;6.87;;
5819;SDS011;2936;47.348;9.640;2023-05-27T14:29:11;10.30;;;6.83;;
5819;SDS011;2936;47.348;9.640;2023-05-27T14:31:38;11.67;;;7.70;;
5819;SDS011;2936;47.348;9.640;2023-05-27T14:34:05;8.23;;;7.10;;
5819;SDS011;2936;47.348;9.640;2023-05-27T14:36:33;11.93;;;7.13;;
5819;SDS011;2936;47.348;9.640;2023-05-27T14:39:01;10.20;;;7.20;;
5819;SDS011;2936;47.348;9.640;2023-05-27T14:41:31;8.70;;;6.70;;
5819;SDS011;2936;47.348;9.640;2023-05-27T14:43:58;14.27;;;7.70;;
5819;SDS011;2936;47.348;9.640;2023-05-27T14:46:25;12.53;;;6.90;;
5819;SDS011;2936;47.348;9.640;2023-05-27T14:48:53;10.53;;;7.20;;
5819;SDS011;2936;47.348;9.640;2023-05-27T14:51:20;9.90;;;6.70;;
5819;SDS011;2936;47.348;9.640;2023-05-27T14:53:48;11.30;;;8.23;;
5819;SDS011;2936;47.348;9.640;2023-05-27T14:56:16;13.73;;;8.23;;
5819;SDS011;2936;47.348;9.640;2023-05-27T14:58:44;12.40;;;7.03;;